createdAt,value
2018-06-08T00:03:44.579Z,21.66
2018-06-08T00:08:46.749Z,21.62
2018-06-08T00:13:48.945Z,21.61
2018-06-08T00:18:51.156Z,21.56
2018-06-08T00:23:53.304Z,21.49
2018-06-08T00:28:55.507Z,21.45
2018-06-08T00:33:57.739Z,21.40
2018-06-08T00:38:59.911Z,21.36
2018-06-08T00:44:02.148Z,21.23
2018-06-08T00:49:04.295Z,21.20
2018-06-08T00:54:06.469Z,21.21
2018-06-08T00:59:08.607Z,21.14
2018-06-08T01:04:10.780Z,21.08
2018-06-08T01:09:12.963Z,21.01
2018-06-08T01:14:15.101Z,20.87
2018-06-08T01:19:17.307Z,20.90
2018-06-08T01:24:19.472Z,20.83
2018-06-08T01:29:21.662Z,20.86
2018-06-08T01:34:23.870Z,20.77
2018-06-08T01:39:26.044Z,20.67
2018-06-08T01:44:28.222Z,20.57
2018-06-08T01:49:30.399Z,20.57
2018-06-08T01:54:32.561Z,20.52
2018-06-08T01:59:34.742Z,20.52
2018-06-08T02:04:36.941Z,20.41
2018-06-08T02:09:39.139Z,20.33
2018-06-08T02:14:41.307Z,20.28
2018-06-08T02:19:43.485Z,20.22
2018-06-08T02:24:45.657Z,20.12
2018-06-08T02:29:47.868Z,20.11
2018-06-08T02:34:50.037Z,20.12
2018-06-08T02:39:52.198Z,20.07
2018-06-08T02:44:54.351Z,20.05
2018-06-08T02:49:56.560Z,19.98
2018-06-08T02:54:58.720Z,19.97
2018-06-08T03:00:00.927Z,19.99
2018-06-08T03:05:03.180Z,19.84
2018-06-08T03:10:05.357Z,19.86
2018-06-08T03:15:07.568Z,19.81
2018-06-08T03:20:09.749Z,19.83
2018-06-08T03:25:11.916Z,19.82
2018-06-08T03:30:14.113Z,19.81
2018-06-08T03:35:16.289Z,19.77
2018-06-08T03:40:18.444Z,19.83
2018-06-08T03:45:20.650Z,19.86
2018-06-08T03:50:22.852Z,19.94
2018-06-08T03:55:25.026Z,19.91
2018-06-08T04:00:27.227Z,20.02
2018-06-08T04:05:29.387Z,20.03
2018-06-08T04:10:31.559Z,20.09
2018-06-08T04:15:33.728Z,20.13
2018-06-08T04:20:35.889Z,20.25
2018-06-08T04:25:38.052Z,20.36
2018-06-08T04:30:40.285Z,20.47
2018-06-08T04:35:42.445Z,20.62
2018-06-08T04:40:44.651Z,20.76
2018-06-08T04:45:46.837Z,20.87
2018-06-08T04:50:49.020Z,21.00
2018-06-08T04:55:51.188Z,21.16
2018-06-08T05:00:53.388Z,21.20
2018-06-08T05:05:55.606Z,21.24
2018-06-08T05:10:57.793Z,21.23
2018-06-08T05:15:59.964Z,21.43
2018-06-08T05:21:02.165Z,21.61
2018-06-08T05:26:04.411Z,21.57
2018-06-08T05:31:06.707Z,21.64
2018-06-08T05:36:09.459Z,21.81
2018-06-08T05:41:11.650Z,21.84
2018-06-08T05:46:13.836Z,21.99
2018-06-08T05:51:15.989Z,22.15
2018-06-08T05:56:18.159Z,22.22
2018-06-08T06:01:20.341Z,22.09
2018-06-08T06:06:22.535Z,22.16
2018-06-08T06:11:24.737Z,22.29
2018-06-08T06:16:26.975Z,22.44
2018-06-08T06:21:29.230Z,22.48
2018-06-08T06:26:31.463Z,22.68
2018-06-08T06:31:33.755Z,22.60
2018-06-08T06:36:35.974Z,22.57
2018-06-08T06:41:38.230Z,22.58
2018-06-08T06:46:40.496Z,22.66
2018-06-08T06:51:42.754Z,22.75
2018-06-08T06:56:45.019Z,22.86
2018-06-08T07:01:47.266Z,22.87
2018-06-08T07:06:49.543Z,22.87
2018-06-08T07:11:51.795Z,23.09
2018-06-08T07:16:54.023Z,23.19
2018-06-08T07:21:57.079Z,23.28
2018-06-08T07:26:59.328Z,23.25
2018-06-08T07:32:01.661Z,23.41
2018-06-08T07:37:03.879Z,23.61
2018-06-08T07:42:06.239Z,23.70
2018-06-08T07:47:08.484Z,23.79
2018-06-08T07:52:10.713Z,23.86
2018-06-08T07:57:12.970Z,23.98
2018-06-08T08:02:15.259Z,24.02
2018-06-08T08:07:17.504Z,24.09
2018-06-08T08:12:19.744Z,24.19
2018-06-08T08:17:21.997Z,24.16
2018-06-08T08:22:24.267Z,24.27
2018-06-08T08:27:26.470Z,24.31
2018-06-08T08:32:28.759Z,24.43
2018-06-08T08:37:31.013Z,24.49
2018-06-08T08:42:40.170Z,24.54
2018-06-08T08:47:42.476Z,24.64
2018-06-08T08:52:44.787Z,24.51
2018-06-08T08:57:47.029Z,24.46
2018-06-08T09:02:49.308Z,24.57
2018-06-08T09:07:51.595Z,24.59
2018-06-08T09:12:53.831Z,24.85
2018-06-08T09:17:56.066Z,24.81
2018-06-08T09:22:58.320Z,24.85
2018-06-08T09:28:00.603Z,24.96
2018-06-08T09:33:02.961Z,24.92
2018-06-08T09:38:05.263Z,24.97
2018-06-08T09:43:07.539Z,24.99
2018-06-08T09:48:09.736Z,25.06
2018-06-08T09:53:12.018Z,25.05
2018-06-08T09:58:14.246Z,25.15
2018-06-08T10:03:16.504Z,25.13
2018-06-08T10:08:18.779Z,25.22
2018-06-08T10:13:21.046Z,25.30
2018-06-08T10:18:24.244Z,25.39
2018-06-08T10:23:26.521Z,25.34
2018-06-08T10:28:28.766Z,25.60
2018-06-08T10:33:31.054Z,25.67
2018-06-08T10:38:33.277Z,25.63
2018-06-08T10:43:35.497Z,25.77
2018-06-08T10:48:37.773Z,26.28
2018-06-08T10:53:40.032Z,26.54
2018-06-08T10:58:42.264Z,26.80
2018-06-08T11:03:44.553Z,27.09
2018-06-08T11:08:46.801Z,27.18
2018-06-08T11:13:49.047Z,27.53
2018-06-08T11:18:51.263Z,27.83
2018-06-08T11:23:53.496Z,28.03
2018-06-08T11:28:55.787Z,28.33
2018-06-08T11:33:58.073Z,28.17
2018-06-08T11:39:00.315Z,28.64
2018-06-08T11:44:02.748Z,28.92
2018-06-08T11:49:05.243Z,29.25
2018-06-08T11:54:07.526Z,29.28
2018-06-08T11:59:09.763Z,29.42
2018-06-08T12:04:12.097Z,29.74
2018-06-08T12:09:14.341Z,30.12
2018-06-08T12:14:16.616Z,30.20
2018-06-08T12:19:18.828Z,30.37
2018-06-08T12:24:21.046Z,30.54
2018-06-08T12:29:23.304Z,30.90
2018-06-08T12:34:25.614Z,31.13
2018-06-08T12:39:27.879Z,31.36
2018-06-08T12:44:30.136Z,31.22
2018-06-08T12:49:32.374Z,31.08
2018-06-08T12:54:34.634Z,31.49
2018-06-08T12:59:36.898Z,31.46
2018-06-08T13:04:39.135Z,31.83
2018-06-08T13:09:41.387Z,31.96
2018-06-08T13:14:43.660Z,32.17
2018-06-08T13:19:45.853Z,32.19
2018-06-08T13:24:48.043Z,31.89
2018-06-08T13:29:50.259Z,32.32
2018-06-08T13:34:52.525Z,32.44
2018-06-08T13:39:54.711Z,32.29
2018-06-08T13:44:56.913Z,32.14
2018-06-08T13:49:59.092Z,32.01
2018-06-08T13:55:01.272Z,32.18
2018-06-08T14:00:03.564Z,32.61
2018-06-08T14:05:05.811Z,32.69
2018-06-08T14:10:08.037Z,32.77
2018-06-08T14:15:10.255Z,33.03
2018-06-08T14:20:12.493Z,32.92
2018-06-08T14:25:14.678Z,32.83
2018-06-08T14:30:16.886Z,32.33
2018-06-08T14:35:19.155Z,32.35
2018-06-08T14:40:21.375Z,32.19
2018-06-08T14:45:23.570Z,32.21
2018-06-08T14:50:25.810Z,32.56
2018-06-08T14:55:27.993Z,32.38
2018-06-08T15:00:30.192Z,32.59
2018-06-08T15:05:32.374Z,32.83
2018-06-08T15:10:34.587Z,32.65
2018-06-08T15:15:36.805Z,32.57
2018-06-08T15:20:39.039Z,32.43
2018-06-08T15:25:41.248Z,32.16
2018-06-08T15:30:43.550Z,31.92
2018-06-08T15:35:45.762Z,31.21
2018-06-08T15:40:47.948Z,31.03
2018-06-08T15:45:50.122Z,31.34
2018-06-08T15:50:52.341Z,31.44
2018-06-08T15:55:54.517Z,31.07
2018-06-08T16:00:56.710Z,30.82
2018-06-08T16:05:58.928Z,30.25
2018-06-08T16:11:01.116Z,30.07
2018-06-08T16:16:03.313Z,29.88
2018-06-08T16:21:05.476Z,29.83
2018-06-08T16:26:07.664Z,29.59
2018-06-08T16:31:09.905Z,29.64
2018-06-08T16:36:12.194Z,29.59
2018-06-08T16:41:14.374Z,29.69
2018-06-08T16:46:16.586Z,29.52
2018-06-08T16:51:18.807Z,29.44
2018-06-08T16:56:20.997Z,29.53
2018-06-08T17:01:23.180Z,29.74
2018-06-08T17:06:25.378Z,29.62
2018-06-08T17:11:27.603Z,29.40
2018-06-08T17:16:29.788Z,29.20
2018-06-08T17:21:32.038Z,28.99
2018-06-08T17:26:34.246Z,28.38
2018-06-08T17:31:43.397Z,28.11
2018-06-08T17:36:45.688Z,27.79
2018-06-08T17:41:47.928Z,27.34
2018-06-08T17:46:50.169Z,27.11
2018-06-08T17:51:52.381Z,26.99
2018-06-08T17:56:54.598Z,26.57
2018-06-08T18:01:56.827Z,26.39
2018-06-08T18:06:59.078Z,26.30
2018-06-08T18:12:01.327Z,26.08
2018-06-08T18:17:03.611Z,25.95
2018-06-08T18:22:05.902Z,25.93
2018-06-08T18:27:08.121Z,25.91
2018-06-08T18:32:10.412Z,25.78
2018-06-08T18:37:12.734Z,25.69
2018-06-08T18:42:15.013Z,25.59
2018-06-08T18:47:17.285Z,25.45
2018-06-08T18:52:19.512Z,25.27
2018-06-08T18:57:21.734Z,25.18
2018-06-08T19:02:23.933Z,25.10
2018-06-08T19:07:26.465Z,25.06
2018-06-08T19:12:28.753Z,24.98
2018-06-08T19:17:30.961Z,24.95
2018-06-08T19:22:33.203Z,24.93
2018-06-08T19:27:35.461Z,24.91
2018-06-08T19:32:37.694Z,24.73
2018-06-08T19:37:39.956Z,24.56
2018-06-08T19:42:42.200Z,24.53
2018-06-08T19:47:44.422Z,24.52
2018-06-08T19:52:46.652Z,24.51
2018-06-08T19:57:48.867Z,24.45
2018-06-08T20:02:51.105Z,24.42
2018-06-08T20:07:53.383Z,24.48
2018-06-08T20:12:55.646Z,24.26
2018-06-08T20:17:57.894Z,24.19
2018-06-08T20:23:00.153Z,24.20
2018-06-08T20:28:02.406Z,24.21
2018-06-08T20:33:04.714Z,24.12
2018-06-08T20:38:07.220Z,24.06
2018-06-08T20:43:09.508Z,23.92
2018-06-08T20:48:11.774Z,23.89
2018-06-08T20:53:13.996Z,23.80
2018-06-08T20:58:21.637Z,23.72
2018-06-08T21:03:23.895Z,23.66
2018-06-08T21:08:26.149Z,23.65
2018-06-08T21:13:28.363Z,23.69
2018-06-08T21:18:30.605Z,23.58
2018-06-08T21:23:32.831Z,23.53
2018-06-08T21:28:35.008Z,23.50
2018-06-08T21:33:37.206Z,23.24
2018-06-08T21:38:39.466Z,23.27
2018-06-08T21:43:41.690Z,23.32
2018-06-08T21:48:43.981Z,23.30
2018-06-08T21:53:46.228Z,23.01
2018-06-08T21:58:48.414Z,23.02
2018-06-08T22:03:50.661Z,22.94
2018-06-08T22:08:59.847Z,22.75
2018-06-08T22:14:02.153Z,22.76
2018-06-08T22:19:04.402Z,22.80
2018-06-08T22:24:07.419Z,22.75
2018-06-08T22:29:16.552Z,22.73
2018-06-08T22:34:18.760Z,22.75
2018-06-08T22:39:20.989Z,22.70
2018-06-08T22:44:23.305Z,22.69
2018-06-08T22:49:25.512Z,22.70
2018-06-08T22:54:27.709Z,22.63
2018-06-08T22:59:29.970Z,22.62
2018-06-08T23:04:32.191Z,22.65
2018-06-08T23:09:34.413Z,22.54
2018-06-08T23:14:36.599Z,22.56
2018-06-08T23:19:38.804Z,22.55
2018-06-08T23:24:40.945Z,22.51
2018-06-08T23:29:43.152Z,22.42
2018-06-08T23:34:45.320Z,22.44
2018-06-08T23:39:47.551Z,22.32
2018-06-08T23:44:49.736Z,22.30
2018-06-08T23:49:51.922Z,22.19
2018-06-08T23:54:54.067Z,22.18
2018-06-08T23:59:56.280Z,22.23
